Terminal Aerodrome Forecast
Issued by NWS Tulsa, OK

Home | Current Version | Previous Version | Text Only | Print | Product List | Glossary On
Versions: 1 2 3 4 5 6 7 8 9 10 11 12 13 14 15 16
095
FTUS44 KTSA 101720
TAFTUL
TAF
KTUL 101720Z 1018/1118 20016G24KT P6SM SKC
     FM110000 23007KT P6SM SKC
     FM110600 33008KT P6SM FEW250
     FM111500 01010KT P6SM SCT250=

USA.gov is the U.S. government's official web portal to all federal, state and local government web resources and services.